Avondale, UT

11:55 AM MST on February 22, 2017 (GMT -0700)
Christensen Acres | | Change Station

Elev 4236 ft 40.79 °N, 111.93 °W | Updated 32 seconds ago

Mostly Cloudy
Mostly Cloudy
41.1 °F
Feels Like 38 °F
N
5.0
Wind Variable Wind from SSE

Today
High -- | Low -- °F
--% Chance of Precip.
Yesterday
High -- | Low -- °F
Precip. -- in
Pressure 29.96 in
Visibility 10.0 miles
Clouds Few 1600 ft
Scattered Clouds 3800 ft
Mostly Cloudy 9500 ft
Windchill 38 °F
Dew Point 35 °F
Humidity 80%
Rainfall 0.05 in
Snow Depth Not available.
7:11 AM 6:11 PM
Waning Crescent, 15% visible
METAR KSLC 221754Z 14006KT 10SM FEW016 SCT038 BKN095 04/01 A2995 RMK AO2 SLP145 TCU DSNT SW SH DSNT SE-S T00390006 10039 20022 58011
Pressure 29.96 in
Visibility 10.0 miles
Clouds Few 1600 ft
Scattered Clouds 3800 ft
Mostly Cloudy 9500 ft
Windchill 38 °F
Dew Point 35 °F
Humidity 80%
Rainfall 0.05 in
Snow Depth Not available.
7:11 AM 6:11 PM
Waning Crescent, 15% visible
METAR KSLC 221754Z 14006KT 10SM FEW016 SCT038 BKN095 04/01 A2995 RMK AO2 SLP145 TCU DSNT SW SH DSNT SE-S T00390006 10039 20022 58011

Get Your Daily Forecast Email!

Thanks for signing up!

Be on the lookout for a verification email in your inbox.

You'll start receiving the daily forecast at 8 AM.

×

10-Day Weather Forecast

Almanac

Astronomy

Feb. 22, 2017 Rise Set
Actual Time
Civil Twilight
Nautical Twilight
Astronomical Twilight
Moon
Length of Visible Light
Length of Day
Tomorrow will be .
, % of the Moon is Illuminated

Today's Extremes

State Highs State Lows

Community

WunderPhotos

Upload Photos

1,962,540 photos uploaded!

WunderBlog® & News

Nearby

Air Quality

  Air Quality AQ Index Pollutant
Not available.

Snow Depth

Station Depth Elevation

Earthquake Activity

City Distance Mag. Time & Date
Minimum magnitude displayed is 2.5.

Coastal Water Temperatures

Place Temperature

Stations

Nearby Weather Stations

Station Location Temp. Windchill Dew Point Humidity Wind Precip. Elev Updated Type
                   

Watches & Warnings

There are currently no watches in effect.